Philadelphia, Pennsylvania
Traffic Map
Current Weather Conditions
Philadelphia, Pennsylvania
Few Clouds
Few Clouds
29°
Feels Like: 32°
Wind Chill: 29° Ceiling: Unl
Heat Index: 32° Visibility: 10mi
Dew Point: 22° Wind: 8mph
Humidity: 65% Direction: 220° (SW)
Pressure: 29.96in Gusts: 0mph
Raw Report DataKPHL 021354Z 22007KT 10SM FEW330 29/22 A2996 RMK AO2 SLP144 T02890217
Traffic Incident Summary
Active as of:
Severity:
Category:
InformationThere was an issue retrieving the traffic information for this location. Please try a different location or try again shortly.
Advertisements
Track Severe Weather on mobile